createdAt,value
2019-05-11T00:00:56.405Z,99.90
2019-05-11T00:03:25.087Z,99.90
2019-05-11T00:05:53.787Z,99.90
2019-05-11T00:08:22.486Z,99.90
2019-05-11T00:10:51.187Z,99.90
2019-05-11T00:13:19.873Z,99.90
2019-05-11T00:15:48.611Z,99.90
2019-05-11T00:18:17.308Z,99.90
2019-05-11T00:20:45.996Z,99.90
2019-05-11T00:23:14.695Z,99.90
2019-05-11T00:25:43.380Z,99.90
2019-05-11T00:28:12.136Z,99.90
2019-05-11T00:30:40.816Z,99.90
2019-05-11T00:33:09.500Z,99.90
2019-05-11T00:35:38.199Z,99.90
2019-05-11T00:38:06.892Z,99.90
2019-05-11T00:40:35.598Z,99.90
2019-05-11T00:43:04.587Z,99.90
2019-05-11T00:45:33.280Z,99.90
2019-05-11T00:48:01.977Z,99.90
2019-05-11T00:50:39.123Z,99.90
2019-05-11T00:53:01.024Z,99.90
2019-05-11T00:55:29.727Z,99.90
2019-05-11T00:57:58.423Z,99.90
2019-05-11T01:00:27.299Z,99.90
2019-05-11T01:02:55.999Z,99.90
2019-05-11T01:05:24.905Z,99.90
2019-05-11T01:07:53.523Z,99.90
2019-05-11T01:10:29.030Z,99.90
2019-05-11T01:12:52.548Z,99.90
2019-05-11T01:15:21.238Z,99.90
2019-05-11T01:17:49.926Z,99.90
2019-05-11T01:20:19.124Z,99.90
2019-05-11T01:22:47.812Z,99.90
2019-05-11T01:25:16.615Z,99.90
2019-05-11T01:27:45.296Z,99.90
2019-05-11T01:30:14.386Z,99.90
2019-05-11T01:32:43.090Z,99.90
2019-05-11T01:35:12.076Z,99.90
2019-05-11T01:37:40.776Z,99.90
2019-05-11T01:40:09.875Z,99.90
2019-05-11T01:42:38.563Z,99.90
2019-05-11T01:45:07.967Z,99.90
2019-05-11T01:47:36.682Z,99.90
2019-05-11T01:50:05.372Z,99.90
2019-05-11T01:52:34.096Z,99.90
2019-05-11T01:55:02.791Z,99.90
2019-05-11T01:57:31.555Z,99.90
2019-05-11T02:00:00.223Z,99.90
2019-05-11T02:02:28.923Z,99.90
2019-05-11T02:05:15.772Z,99.90
2019-05-11T02:07:44.575Z,99.90
2019-05-11T02:10:13.471Z,99.90
2019-05-11T02:12:42.175Z,99.90
2019-05-11T02:15:10.965Z,99.90
2019-05-11T02:17:39.663Z,99.90
2019-05-11T02:20:08.448Z,99.90
2019-05-11T02:22:37.208Z,99.90
2019-05-11T02:25:06.992Z,99.90
2019-05-11T02:27:35.692Z,99.90
2019-05-11T02:30:05.588Z,99.90
2019-05-11T02:32:34.294Z,99.90
2019-05-11T02:35:03.099Z,99.90
2019-05-11T02:37:31.770Z,99.90
2019-05-11T02:40:00.464Z,99.90
2019-05-11T02:42:29.357Z,99.90
2019-05-11T02:44:58.056Z,99.90
2019-05-11T02:47:26.756Z,99.90
2019-05-11T02:49:55.444Z,99.90
2019-05-11T02:52:25.040Z,99.90
2019-05-11T02:54:55.901Z,99.90
2019-05-11T02:57:24.606Z,99.90
2019-05-11T02:59:53.404Z,99.90
2019-05-11T03:02:22.104Z,99.90
2019-05-11T03:04:50.788Z,99.90
2019-05-11T03:07:19.534Z,99.90
2019-05-11T03:09:48.235Z,99.90
2019-05-11T03:12:16.919Z,99.90
2019-05-11T03:14:45.625Z,99.90
2019-05-11T03:17:18.660Z,99.90
2019-05-11T03:19:47.377Z,99.90
2019-05-11T03:22:16.064Z,99.90
2019-05-11T03:24:44.751Z,99.90
2019-05-11T03:27:13.493Z,99.90
2019-05-11T03:29:42.349Z,99.90
2019-05-11T03:32:11.041Z,99.90
2019-05-11T03:34:39.736Z,99.90
2019-05-11T03:37:08.435Z,99.90
2019-05-11T03:39:37.225Z,99.90
2019-05-11T03:42:14.624Z,99.90
2019-05-11T03:44:36.269Z,99.90
2019-05-11T03:47:04.966Z,99.90
2019-05-11T03:49:33.664Z,99.90
2019-05-11T03:52:02.364Z,99.90
2019-05-11T03:54:31.052Z,99.90
2019-05-11T03:56:59.759Z,99.90
2019-05-11T03:59:28.459Z,99.90
2019-05-11T04:01:57.160Z,99.90
2019-05-11T04:04:25.881Z,99.90
2019-05-11T04:06:54.572Z,99.90
2019-05-11T04:09:23.424Z,99.90
2019-05-11T04:11:52.128Z,99.90
2019-05-11T04:14:20.808Z,99.90
2019-05-11T04:16:49.522Z,99.90
2019-05-11T04:19:18.191Z,99.90
2019-05-11T04:21:46.963Z,99.90
2019-05-11T04:24:15.647Z,99.90
2019-05-11T04:26:44.335Z,99.90
2019-05-11T04:29:13.038Z,99.90
2019-05-11T04:31:41.800Z,99.90
2019-05-11T04:34:10.497Z,99.90
2019-05-11T04:36:39.192Z,99.90
2019-05-11T04:39:07.896Z,99.90
2019-05-11T04:41:36.668Z,99.90
2019-05-11T04:44:05.348Z,99.90
2019-05-11T04:46:34.048Z,99.90
2019-05-11T04:49:02.732Z,99.90
2019-05-11T04:51:31.436Z,99.90
2019-05-11T04:54:00.127Z,99.90
2019-05-11T04:56:28.820Z,99.90
2019-05-11T04:58:57.520Z,99.90
2019-05-11T05:01:26.208Z,99.90
2019-05-11T05:03:57.783Z,99.90
2019-05-11T05:06:25.323Z,99.90
2019-05-11T05:08:58.112Z,99.90
2019-05-11T05:11:24.375Z,99.90
2019-05-11T05:13:53.621Z,99.90
2019-05-11T05:16:22.475Z,90.00
2019-05-11T05:18:51.175Z,79.10
2019-05-11T05:21:19.879Z,73.80
2019-05-11T05:23:48.587Z,80.00
2019-05-11T05:26:17.343Z,84.20
2019-05-11T05:28:46.145Z,70.50
2019-05-11T05:31:14.831Z,70.60
2019-05-11T05:33:43.539Z,71.10
2019-05-11T05:36:12.229Z,65.10
2019-05-11T05:38:40.935Z,68.10
2019-05-11T05:41:09.635Z,68.30
2019-05-11T05:43:38.263Z,67.80
2019-05-11T05:46:06.959Z,65.10
2019-05-11T05:48:35.655Z,74.20
2019-05-11T05:51:04.376Z,89.80
2019-05-11T05:53:33.091Z,91.80
2019-05-11T05:56:01.841Z,93.60
2019-05-11T05:58:30.515Z,80.50
2019-05-11T06:00:59.217Z,67.00
2019-05-11T06:03:27.921Z,64.10
2019-05-11T06:05:56.619Z,61.50
2019-05-11T06:08:25.319Z,59.90
2019-05-11T06:10:54.028Z,65.00
2019-05-11T06:13:22.815Z,57.80
2019-05-11T06:15:51.511Z,69.00
2019-05-11T06:18:20.235Z,85.70
2019-05-11T06:20:48.839Z,96.40
2019-05-11T06:23:17.533Z,99.90
2019-05-11T06:25:46.235Z,96.70
2019-05-11T06:28:14.943Z,79.40
2019-05-11T06:30:43.652Z,76.10
2019-05-11T06:33:12.387Z,59.50
2019-05-11T06:35:41.104Z,55.90
2019-05-11T06:38:09.799Z,48.60
2019-05-11T06:40:38.499Z,48.30
2019-05-11T06:43:07.207Z,54.20
2019-05-11T06:45:35.908Z,55.40
2019-05-11T06:48:04.611Z,56.90
2019-05-11T06:50:33.376Z,55.20
2019-05-11T06:53:02.118Z,54.50
2019-05-11T06:55:30.908Z,51.20
2019-05-11T06:57:59.628Z,50.60
2019-05-11T07:00:28.695Z,48.80
2019-05-11T07:02:57.404Z,46.50
2019-05-11T07:05:26.148Z,45.90
2019-05-11T07:07:54.917Z,45.10
2019-05-11T07:10:23.648Z,45.20
2019-05-11T07:12:52.348Z,44.70
2019-05-11T07:15:21.085Z,43.90
2019-05-11T07:17:49.711Z,45.50
2019-05-11T07:20:18.408Z,45.20
2019-05-11T07:22:47.163Z,46.80
2019-05-11T07:25:15.860Z,45.50
2019-05-11T07:27:44.481Z,45.50
2019-05-11T07:30:13.458Z,42.10
2019-05-11T07:32:42.195Z,39.60
2019-05-11T07:35:10.900Z,40.20
2019-05-11T07:37:39.607Z,40.60
2019-05-11T07:40:08.811Z,41.00
2019-05-11T07:42:38.129Z,40.90
2019-05-11T07:45:09.012Z,41.20
2019-05-11T07:47:38.151Z,39.30
2019-05-11T07:50:08.362Z,40.00
2019-05-11T07:52:37.827Z,41.40
2019-05-11T07:55:08.549Z,39.80
2019-05-11T07:57:39.075Z,39.60
2019-05-11T08:00:08.703Z,43.00
2019-05-11T08:02:38.728Z,44.90
2019-05-11T08:05:08.706Z,43.50
2019-05-11T08:07:37.936Z,41.60
2019-05-11T08:10:08.425Z,43.90
2019-05-11T08:12:39.149Z,42.10
2019-05-11T08:15:12.479Z,43.80
2019-05-11T08:17:38.249Z,48.10
2019-05-11T08:20:08.428Z,51.00
2019-05-11T08:22:37.819Z,53.00
2019-05-11T08:25:09.197Z,49.40
2019-05-11T08:27:38.012Z,44.30
2019-05-11T08:30:11.543Z,49.60
2019-05-11T08:32:40.246Z,50.20
2019-05-11T08:35:09.647Z,43.70
2019-05-11T08:37:38.921Z,41.70
2019-05-11T08:40:08.150Z,37.70
2019-05-11T08:42:37.887Z,41.70
2019-05-11T08:45:18.783Z,44.80
2019-05-11T08:47:37.850Z,44.10
2019-05-11T08:50:08.179Z,38.50
2019-05-11T08:52:38.717Z,36.10
2019-05-11T08:55:08.477Z,41.00
2019-05-11T08:57:38.775Z,41.50
2019-05-11T09:00:10.619Z,43.80
2019-05-11T09:02:39.324Z,44.80
2019-05-11T09:05:08.340Z,47.60
2019-05-11T09:07:38.380Z,49.10
2019-05-11T09:10:08.278Z,51.00
2019-05-11T09:12:38.205Z,53.80
2019-05-11T09:15:08.725Z,55.50
2019-05-11T09:17:38.266Z,56.80
2019-05-11T09:20:08.781Z,58.10
2019-05-11T09:22:38.225Z,55.50
2019-05-11T09:25:08.939Z,53.20
2019-05-11T09:27:37.841Z,55.20
2019-05-11T09:30:08.351Z,61.20
2019-05-11T09:32:38.522Z,57.80
2019-05-11T09:35:08.416Z,51.40
2019-05-11T09:37:38.073Z,45.00
2019-05-11T09:40:07.860Z,47.30
2019-05-11T09:42:38.915Z,43.10
2019-05-11T09:45:08.023Z,43.90
2019-05-11T09:47:38.593Z,42.30
2019-05-11T09:50:08.558Z,42.50
2019-05-11T09:52:38.514Z,45.90
2019-05-11T09:55:08.920Z,44.60
2019-05-11T09:57:38.277Z,47.00
2019-05-11T10:00:08.722Z,49.60
2019-05-11T10:02:38.694Z,49.20
2019-05-11T10:05:08.653Z,51.10
2019-05-11T10:07:38.114Z,49.30
2019-05-11T10:10:09.273Z,51.90
2019-05-11T10:12:38.396Z,43.20
2019-05-11T10:15:08.579Z,45.60
2019-05-11T10:17:38.300Z,45.20
2019-05-11T10:20:09.204Z,46.10
2019-05-11T10:22:38.601Z,44.60
2019-05-11T10:25:09.229Z,48.50
2019-05-11T10:27:39.500Z,49.70
2019-05-11T10:30:09.205Z,51.00
2019-05-11T10:32:38.179Z,50.60
2019-05-11T10:35:08.058Z,50.40
2019-05-11T10:37:38.982Z,50.40
2019-05-11T10:40:09.534Z,48.70
2019-05-11T10:42:38.420Z,44.20
2019-05-11T10:45:09.078Z,44.00
2019-05-11T10:47:38.903Z,46.00
2019-05-11T10:50:08.756Z,43.30
2019-05-11T10:52:38.004Z,44.40
2019-05-11T10:55:08.721Z,42.10
2019-05-11T10:57:38.665Z,41.60
2019-05-11T11:00:09.643Z,43.90
2019-05-11T11:02:38.560Z,43.90
2019-05-11T11:05:08.226Z,42.80
2019-05-11T11:07:38.338Z,43.50
2019-05-11T11:10:08.841Z,46.70
2019-05-11T11:12:38.498Z,45.90
2019-05-11T11:15:08.979Z,43.00
2019-05-11T11:17:38.381Z,45.70
2019-05-11T11:20:08.679Z,44.60
2019-05-11T11:22:43.553Z,39.50
2019-05-11T11:25:08.373Z,44.00
2019-05-11T11:27:38.110Z,43.60
2019-05-11T11:30:09.141Z,46.80
2019-05-11T11:32:38.390Z,45.30
2019-05-11T11:35:08.520Z,42.70
2019-05-11T11:37:38.637Z,42.70
2019-05-11T11:40:08.768Z,41.20
2019-05-11T11:42:37.820Z,41.70
2019-05-11T11:45:08.457Z,41.60
2019-05-11T11:47:38.432Z,42.10
2019-05-11T11:50:09.154Z,41.10
2019-05-11T11:52:38.363Z,44.30
2019-05-11T11:55:08.713Z,44.60
2019-05-11T11:57:37.971Z,42.50
2019-05-11T12:00:09.094Z,43.00
2019-05-11T12:02:38.888Z,45.90
2019-05-11T12:05:08.792Z,46.10
2019-05-11T12:07:38.642Z,43.50
2019-05-11T12:10:08.688Z,43.30
2019-05-11T12:12:38.714Z,42.10
2019-05-11T12:15:08.864Z,42.70
2019-05-11T12:17:37.827Z,44.10
2019-05-11T12:20:09.010Z,44.50
2019-05-11T12:22:38.662Z,45.40
2019-05-11T12:25:08.068Z,47.40
2019-05-11T12:27:38.326Z,48.20
2019-05-11T12:30:09.091Z,47.30
2019-05-11T12:32:48.913Z,45.90
2019-05-11T12:35:18.327Z,44.00
2019-05-11T12:37:48.485Z,46.80
2019-05-11T12:40:18.351Z,46.30
2019-05-11T12:42:48.850Z,45.80
2019-05-11T12:45:18.300Z,47.90
2019-05-11T12:47:48.007Z,46.00
2019-05-11T12:50:18.621Z,46.00
2019-05-11T12:52:47.743Z,49.30
2019-05-11T12:55:17.929Z,48.60
2019-05-11T12:57:47.957Z,45.90
2019-05-11T13:00:17.834Z,44.70
2019-05-11T13:02:48.505Z,46.50
2019-05-11T13:05:18.009Z,44.60
2019-05-11T13:07:48.090Z,43.50
2019-05-11T13:10:17.878Z,42.70
2019-05-11T13:12:49.008Z,42.50
2019-05-11T13:15:17.610Z,41.70
2019-05-11T13:17:48.972Z,40.00
2019-05-11T13:20:18.047Z,41.50
2019-05-11T13:22:48.917Z,42.00
2019-05-11T13:25:17.698Z,41.40
2019-05-11T13:27:48.925Z,41.10
2019-05-11T13:30:18.408Z,40.10
2019-05-11T13:32:48.992Z,40.20
2019-05-11T13:35:17.985Z,39.00
2019-05-11T13:37:47.981Z,40.40
2019-05-11T13:40:18.517Z,39.40
2019-05-11T13:42:49.014Z,39.50
2019-05-11T13:45:18.533Z,39.20
2019-05-11T13:47:52.552Z,41.40
2019-05-11T13:50:18.097Z,39.50
2019-05-11T13:52:47.882Z,39.90
2019-05-11T13:55:18.194Z,40.40
2019-05-11T13:57:48.530Z,42.50
2019-05-11T14:00:17.986Z,41.80
2019-05-11T14:02:48.535Z,43.90
2019-05-11T14:05:18.074Z,44.50
2019-05-11T14:07:48.351Z,44.30
2019-05-11T14:10:18.096Z,44.00
2019-05-11T14:12:47.687Z,43.70
2019-05-11T14:15:18.629Z,47.00
2019-05-11T14:17:48.597Z,47.40
2019-05-11T14:20:18.953Z,48.50
2019-05-11T14:22:48.028Z,48.80
2019-05-11T14:25:18.535Z,50.00
2019-05-11T14:27:47.941Z,48.80
2019-05-11T14:30:18.423Z,49.10
2019-05-11T14:33:08.603Z,48.60
2019-05-11T14:35:38.445Z,47.70
2019-05-11T14:38:08.045Z,48.40
2019-05-11T14:40:38.707Z,49.60
2019-05-11T14:43:08.394Z,47.90
2019-05-11T14:45:38.111Z,47.40
2019-05-11T14:48:22.148Z,47.90
2019-05-11T14:50:38.668Z,48.50
2019-05-11T14:53:08.612Z,50.10
2019-05-11T14:55:38.111Z,48.40
2019-05-11T14:58:08.347Z,50.00
2019-05-11T15:00:39.178Z,51.40
2019-05-11T15:03:07.970Z,51.00
2019-05-11T15:05:37.917Z,52.90
2019-05-11T15:08:08.732Z,52.50
2019-05-11T15:10:38.252Z,52.10
2019-05-11T15:13:08.041Z,51.30
2019-05-11T15:15:39.221Z,51.00
2019-05-11T15:18:08.425Z,51.40
2019-05-11T15:20:38.744Z,52.10
2019-05-11T15:23:08.811Z,50.90
2019-05-11T15:25:38.355Z,51.10
2019-05-11T15:28:08.936Z,51.70
2019-05-11T15:30:38.016Z,51.40
2019-05-11T15:33:07.752Z,50.10
2019-05-11T15:35:37.795Z,51.80
2019-05-11T15:38:08.663Z,49.90
2019-05-11T15:40:38.302Z,51.40
2019-05-11T15:43:08.712Z,50.80
2019-05-11T15:45:57.863Z,52.50
2019-05-11T15:48:26.619Z,49.70
2019-05-11T15:50:57.680Z,49.10
2019-05-11T15:53:25.669Z,51.40
2019-05-11T15:55:54.379Z,51.50
2019-05-11T15:58:23.072Z,51.10
2019-05-11T16:00:51.853Z,52.50
2019-05-11T16:03:20.571Z,53.20
2019-05-11T16:05:49.271Z,53.90
2019-05-11T16:08:19.038Z,54.20
2019-05-11T16:10:48.853Z,56.40
2019-05-11T16:13:18.219Z,57.10
2019-05-11T16:15:47.806Z,52.60
2019-05-11T16:18:18.664Z,51.80
2019-05-11T16:20:49.906Z,51.60
2019-05-11T16:23:17.501Z,49.60
2019-05-11T16:25:48.941Z,48.70
2019-05-11T16:28:19.354Z,51.10
2019-05-11T16:30:48.315Z,50.30
2019-05-11T16:33:18.020Z,51.20
2019-05-11T16:35:48.941Z,53.00
2019-05-11T16:38:18.881Z,54.20
2019-05-11T16:40:48.086Z,52.40
2019-05-11T16:43:19.277Z,52.50
2019-05-11T16:45:50.734Z,51.00
2019-05-11T16:48:18.469Z,51.60
2019-05-11T16:50:47.374Z,52.00
2019-05-11T16:53:18.131Z,52.10
2019-05-11T16:55:48.670Z,53.70
2019-05-11T16:58:19.727Z,51.10
2019-05-11T17:00:48.988Z,51.00
2019-05-11T17:03:17.486Z,51.70
2019-05-11T17:05:48.280Z,50.80
2019-05-11T17:08:18.622Z,51.10
2019-05-11T17:10:59.049Z,52.20
2019-05-11T17:13:28.256Z,53.90
2019-05-11T17:15:58.339Z,53.70
2019-05-11T17:18:28.319Z,53.60
2019-05-11T17:20:58.455Z,55.30
2019-05-11T17:23:30.981Z,57.40
2019-05-11T17:25:57.995Z,59.70
2019-05-11T17:28:26.808Z,61.20
2019-05-11T17:30:55.514Z,61.60
2019-05-11T17:33:24.216Z,62.70
2019-05-11T17:35:52.909Z,65.80
2019-05-11T17:38:21.619Z,65.00
2019-05-11T17:40:50.317Z,67.90
2019-05-11T17:43:19.174Z,69.50
2019-05-11T17:45:48.127Z,69.60
2019-05-11T17:48:17.896Z,72.90
2019-05-11T17:50:46.769Z,74.20
2019-05-11T17:53:15.460Z,78.60
2019-05-11T17:55:44.163Z,78.20
2019-05-11T17:58:12.855Z,80.60
2019-05-11T18:00:41.634Z,82.50
2019-05-11T18:03:11.398Z,85.10
2019-05-11T18:05:40.560Z,88.90
2019-05-11T18:08:09.263Z,89.30
2019-05-11T18:10:38.437Z,89.50
2019-05-11T18:13:07.270Z,91.10
2019-05-11T18:15:37.857Z,94.10
2019-05-11T18:18:09.177Z,93.90
2019-05-11T18:20:38.065Z,94.00
2019-05-11T18:23:08.264Z,96.10
2019-05-11T18:25:38.956Z,97.50
2019-05-11T18:28:07.469Z,97.80
2019-05-11T18:30:38.589Z,99.80
2019-05-11T18:33:08.299Z,99.90
2019-05-11T18:35:36.970Z,99.90
2019-05-11T18:38:05.675Z,99.90
2019-05-11T18:40:34.619Z,99.90
2019-05-11T18:43:03.316Z,99.90
2019-05-11T18:45:32.067Z,99.90
2019-05-11T18:48:00.803Z,99.90
2019-05-11T18:50:31.219Z,99.90
2019-05-11T18:52:59.851Z,99.90
2019-05-11T18:55:28.672Z,99.90
2019-05-11T18:57:58.098Z,99.90
2019-05-11T19:00:27.654Z,99.90
2019-05-11T19:02:58.058Z,99.90
2019-05-11T19:05:29.017Z,99.90
2019-05-11T19:07:58.387Z,99.90
2019-05-11T19:10:27.787Z,99.90
2019-05-11T19:12:58.695Z,99.90
2019-05-11T19:15:27.036Z,99.90
2019-05-11T19:17:58.078Z,99.90
2019-05-11T19:20:28.335Z,99.90
2019-05-11T19:22:58.827Z,99.90
2019-05-11T19:25:26.971Z,99.90
2019-05-11T19:28:14.001Z,99.90
2019-05-11T19:30:42.931Z,99.90
2019-05-11T19:33:11.614Z,99.90
2019-05-11T19:35:40.307Z,99.90
2019-05-11T19:38:09.003Z,99.90
2019-05-11T19:40:38.616Z,99.90
2019-05-11T19:43:08.223Z,99.90
2019-05-11T19:45:38.476Z,99.90
2019-05-11T19:48:08.336Z,99.90
2019-05-11T19:50:40.305Z,99.90
2019-05-11T19:53:08.467Z,99.90
2019-05-11T19:55:37.299Z,99.90
2019-05-11T19:58:05.996Z,99.90
2019-05-11T20:00:34.691Z,99.90
2019-05-11T20:03:03.439Z,99.90
2019-05-11T20:05:32.169Z,99.90
2019-05-11T20:08:00.929Z,99.90
2019-05-11T20:10:29.619Z,99.90
2019-05-11T20:12:58.837Z,99.90
2019-05-11T20:15:27.717Z,99.90
2019-05-11T20:17:58.489Z,99.90
2019-05-11T20:20:28.432Z,99.90
2019-05-11T20:22:58.466Z,99.90
2019-05-11T20:25:28.772Z,99.90
2019-05-11T20:27:58.497Z,99.90
2019-05-11T20:30:27.348Z,99.90
2019-05-11T20:32:56.031Z,99.90
2019-05-11T20:35:24.787Z,99.90
2019-05-11T20:37:53.507Z,99.90
2019-05-11T20:40:22.195Z,99.90
2019-05-11T20:42:50.897Z,99.90
2019-05-11T20:45:19.579Z,99.90
2019-05-11T20:47:48.937Z,99.90
2019-05-11T20:50:18.438Z,99.90
2019-05-11T20:52:48.130Z,99.90
2019-05-11T20:55:18.179Z,99.90
2019-05-11T20:57:48.432Z,99.90
2019-05-11T21:00:18.742Z,99.90
2019-05-11T21:02:48.883Z,99.90
2019-05-11T21:05:18.402Z,99.90
2019-05-11T21:07:47.405Z,99.90
2019-05-11T21:10:16.542Z,99.90
2019-05-11T21:12:45.228Z,99.90
2019-05-11T21:15:14.023Z,99.90
2019-05-11T21:17:42.715Z,99.90
2019-05-11T21:20:11.507Z,99.90
2019-05-11T21:22:40.760Z,99.90
2019-05-11T21:25:10.309Z,99.90
2019-05-11T21:27:39.013Z,99.90
2019-05-11T21:30:09.935Z,99.90
2019-05-11T21:32:39.730Z,99.90
2019-05-11T21:35:09.167Z,99.90
2019-05-11T21:37:39.018Z,99.90
2019-05-11T21:40:09.027Z,99.90
2019-05-11T21:42:39.381Z,99.90
2019-05-11T21:45:10.002Z,99.90
2019-05-11T21:47:39.428Z,99.90
2019-05-11T21:50:09.616Z,99.90
2019-05-11T21:52:38.952Z,99.90
2019-05-11T21:55:09.716Z,99.90
2019-05-11T21:57:38.725Z,99.90
2019-05-11T22:00:09.216Z,99.90
2019-05-11T22:02:38.614Z,99.90
2019-05-11T22:05:09.193Z,99.90
2019-05-11T22:07:38.728Z,99.90
2019-05-11T22:10:09.637Z,99.90
2019-05-11T22:12:39.149Z,99.90
2019-05-11T22:15:09.825Z,99.90
2019-05-11T22:17:39.605Z,99.90
2019-05-11T22:20:09.839Z,99.90
2019-05-11T22:22:39.224Z,99.90
2019-05-11T22:25:09.235Z,99.90
2019-05-11T22:27:38.748Z,99.90
2019-05-11T22:30:08.816Z,99.90
2019-05-11T22:32:38.464Z,99.90
2019-05-11T22:35:08.983Z,99.90
2019-05-11T22:37:38.743Z,99.90
2019-05-11T22:40:08.823Z,99.90
2019-05-11T22:42:38.011Z,99.90
2019-05-11T22:47:39.801Z,99.90
2019-05-11T22:50:09.049Z,99.90
2019-05-11T22:52:40.297Z,99.90
2019-05-11T22:57:43.371Z,99.90
2019-05-11T23:00:12.555Z,99.90
2019-05-11T23:02:41.148Z,99.90
2019-05-11T23:05:09.939Z,99.90
2019-05-11T23:07:41.398Z,99.90
2019-05-11T23:10:10.975Z,99.90
2019-05-11T23:12:39.667Z,99.90
2019-05-11T23:15:10.903Z,99.90
2019-05-11T23:17:39.593Z,99.90
2019-05-11T23:20:09.089Z,99.90
2019-05-11T23:22:57.529Z,99.90
2019-05-11T23:25:20.647Z,99.90
2019-05-11T23:27:49.533Z,99.90
2019-05-11T23:30:20.391Z,99.90
2019-05-11T23:32:49.827Z,99.90
2019-05-11T23:35:19.177Z,99.90
2019-05-11T23:37:49.467Z,99.90
2019-05-11T23:40:20.152Z,99.90
2019-05-11T23:42:49.403Z,99.90
2019-05-11T23:45:19.012Z,99.90
2019-05-11T23:47:48.849Z,99.90
2019-05-11T23:50:18.883Z,99.90
2019-05-11T23:52:50.307Z,99.90
2019-05-11T23:55:19.357Z,99.90
2019-05-11T23:57:49.044Z,99.90
